Time;durP1;ratioP1;P1;durP2;ratioP2;P2;SDS_P1;SDS_P2;PMS_P1;PMS_P2;Temp;Humidity;BMP_temperature;BMP_pressure;BME280_temperature;BME280_humidity;BME280_pressure;Samples;Min_cycle;Max_cycle;Signal;HPM_P1;HPM_P2
2022/12/15 00:38:40;;;;;;;7.90;4.95;;;;;;;-1.41;85.05;100633.06;5027762;28;20294;-43
2022/12/15 00:41:07;;;;;;;13.45;5.22;;;;;;;-1.40;85.14;100634.66;5027778;28;20161;-43
2022/12/15 00:43:35;;;;;;;11.15;5.35;;;;;;;-1.42;85.10;100626.81;5022203;28;20056;-43
2022/12/15 00:48:48;;;;;;;13.65;5.90;;;;;;;-1.42;85.19;100632.22;5028028;28;20518;-48
2022/12/15 00:51:15;;;;;;;9.32;5.32;;;;;;;-1.42;85.28;100628.69;5014921;28;20046;-43
2022/12/15 01:21:20;;;;;;;12.45;4.78;;;;;;;-1.44;85.93;100622.72;5046833;28;20506;-45
2022/12/15 01:23:52;;;;;;;6.30;3.95;;;;;;;-1.43;85.94;100617.00;5047003;28;20124;-43
2022/12/15 01:26:19;;;;;;;13.85;4.22;;;;;;;-1.43;86.13;100617.00;5059728;28;20087;-44
2022/12/15 01:28:46;;;;;;;8.45;3.97;;;;;;;-1.41;85.95;100630.34;5046767;28;20131;-46
2022/12/15 01:31:13;;;;;;;11.98;4.78;;;;;;;-1.38;86.15;100621.66;5028643;28;20041;-43
2022/12/15 01:33:41;;;;;;;12.38;4.10;;;;;;;-1.39;86.08;100622.72;5046187;28;20518;-48
2022/12/15 01:36:09;;;;;;;12.30;4.70;;;;;;;-1.38;86.29;100616.22;5046634;28;20040;-43
2022/12/15 01:38:36;;;;;;;13.57;5.78;;;;;;;-1.37;86.16;100617.84;5045966;28;20045;-48
2022/12/15 01:41:09;;;;;;;14.65;4.30;;;;;;;-1.37;86.36;100617.84;5046385;28;20487;-45
2022/12/15 01:43:38;;;;;;;6.38;3.95;;;;;;;-1.37;86.34;100609.69;5053587;28;20114;-43
2022/12/15 01:46:14;;;;;;;16.48;4.53;;;;;;;-1.36;86.35;100603.19;5045685;28;20429;-46
2022/12/15 01:48:47;;;;;;;8.25;3.85;;;;;;;-1.35;86.39;100605.63;5042834;28;20479;-43
2022/12/15 01:51:34;;;;;;;10.20;4.80;;;;;;;-1.34;86.59;100612.69;5032560;28;20049;-43
2022/12/15 01:54:08;;;;;;;9.88;3.25;;;;;;;-1.32;86.42;100615.94;5046468;28;20056;-43
2022/12/15 01:56:48;;;;;;;8.13;3.92;;;;;;;-1.31;86.50;100627.63;5046614;28;20037;-43
2022/12/15 01:59:19;;;;;;;12.23;4.15;;;;;;;-1.31;86.69;100617.59;5043229;28;20525;-43
2022/12/15 02:01:47;;;;;;;16.98;4.45;;;;;;;-1.29;86.57;100620.03;5036858;28;20045;-43
2022/12/15 02:04:19;;;;;;;7.35;4.47;;;;;;;-1.29;86.55;100620.03;5046146;28;20095;-43
2022/12/15 02:06:45;;;;;;;8.65;4.88;;;;;;;-1.29;86.50;100630.88;5045561;28;20048;-43
2022/12/15 02:09:13;;;;;;;10.52;4.28;;;;;;;-1.31;86.66;100630.34;5046005;28;20048;-45
2022/12/15 02:12:07;;;;;;;5.55;3.88;;;;;;;-1.32;86.64;100623.28;5032775;28;20037;-43
2022/12/15 02:14:52;;;;;;;9.85;4.25;;;;;;;-1.34;86.52;100628.16;5046393;28;20068;-45
2022/12/15 02:17:57;;;;;;;15.20;4.55;;;;;;;-1.33;86.70;100618.94;5049301;28;20052;-45
2022/12/15 02:20:27;;;;;;;10.73;4.18;;;;;;;-1.36;86.54;100624.91;5016759;28;20053;-43
2022/12/15 02:22:59;;;;;;;9.38;4.05;;;;;;;-1.37;86.62;100628.69;5045950;28;20045;-44
2022/12/15 02:25:32;;;;;;;;;;;;;;;-1.39;86.94;100628.16;5030243;28;20053;-44
2022/12/15 02:28:15;;;;;;;6.97;3.88;;;;;;;-1.44;86.87;100639.00;5046593;28;19924;-45
2022/12/15 02:33:58;;;;;;;11.32;4.45;;;;;;;-1.45;86.88;100642.81;5038403;28;20807;-47
2022/12/15 02:36:35;;;;;;;8.57;4.20;;;;;;;-1.46;87.02;100652.06;5044595;28;20072;-49
2022/12/15 02:39:04;;;;;;;11.60;4.63;;;;;;;-1.46;87.14;100654.75;5043729;28;20041;-44
2022/12/15 02:41:42;;;;;;;9.70;4.43;;;;;;;-1.47;87.01;100650.41;5044306;28;20048;-44
2022/12/15 02:44:18;;;;;;;8.20;4.40;;;;;;;-1.46;87.10;100641.19;5038410;28;20065;-43
2022/12/15 02:47:14;;;;;;;9.18;4.15;;;;;;;-1.45;87.03;100642.81;5045851;28;20045;-43
2022/12/15 02:49:53;;;;;;;9.70;4.20;;;;;;;-1.46;87.20;100635.75;4999853;28;20048;-43
2022/12/15 02:52:32;;;;;;;7.22;4.80;;;;;;;-1.50;87.09;100632.75;5044263;28;20052;-47
2022/12/15 02:55:13;;;;;;;9.15;4.20;;;;;;;-1.51;87.09;100638.47;5046753;28;20045;-43
2022/12/15 02:57:49;;;;;;;12.82;6.10;;;;;;;-1.54;87.41;100639.81;5048659;28;20455;-44
2022/12/15 03:02:54;;;;;;;10.55;4.47;;;;;;;-1.57;87.31;100642.25;5001728;23;20324;-45
2022/12/15 03:05:23;;;;;;;5.43;4.00;;;;;;;-1.58;87.38;100637.88;5038141;28;20057;-46
2022/12/15 03:07:52;;;;;;;7.85;4.32;;;;;;;-1.58;87.53;100644.13;5040892;28;20072;-44
2022/12/15 03:10:23;;;;;;;13.35;5.25;;;;;;;-1.59;87.61;100642.50;5045760;28;20497;-49
2022/12/15 03:12:51;;;;;;;11.73;4.35;;;;;;;-1.58;87.59;100637.88;5044369;28;20057;-44
2022/12/15 03:15:18;;;;;;;11.02;4.57;;;;;;;-1.59;87.52;100636.28;5049432;28;20041;-43
2022/12/15 03:17:45;;;;;;;8.10;4.05;;;;;;;-1.59;87.71;100641.72;5049046;28;20045;-44
2022/12/15 03:20:12;;;;;;;8.30;4.40;;;;;;;-1.61;87.79;100633.81;5049299;28;20044;-43
2022/12/15 03:22:39;;;;;;;10.15;5.38;;;;;;;-1.61;87.70;100641.13;5049040;28;20067;-44
2022/12/15 03:25:06;;;;;;;9.85;4.07;;;;;;;-1.61;87.76;100638.41;5042519;28;20045;-48
2022/12/15 03:27:34;;;;;;;6.75;4.10;;;;;;;-1.61;88.00;100633.00;5049376;28;20045;-43
2022/12/15 03:30:01;;;;;;;11.63;4.57;;;;;;;-1.58;87.80;100637.88;5042123;28;20045;-43
2022/12/15 03:32:28;;;;;;;9.10;3.83;;;;;;;-1.60;87.87;100634.63;5049037;28;20033;-45
2022/12/15 03:34:55;;;;;;;5.72;3.55;;;;;;;-1.61;87.70;100627.56;5043179;28;20052;-44
2022/12/15 03:37:21;;;;;;;9.45;4.20;;;;;;;-1.62;87.84;100634.91;5047672;28;20052;-43
2022/12/15 03:39:48;;;;;;;11.77;4.00;;;;;;;-1.61;87.88;100635.72;5046994;28;20037;-43
2022/12/15 03:42:46;;;;;;;7.68;4.10;;;;;;;-1.63;87.93;100632.44;5019496;28;20546;-43
2022/12/15 03:45:02;;;;;;;10.23;3.72;;;;;;;-1.63;87.93;100643.31;5042122;28;20415;-44
2022/12/15 03:47:29;;;;;;;10.82;3.97;;;;;;;-1.61;88.04;100638.41;5047229;28;20128;-44
2022/12/15 03:49:55;;;;;;;11.50;4.20;;;;;;;-1.61;87.90;100633.00;5035609;28;20056;-43
2022/12/15 03:52:22;;;;;;;8.77;3.97;;;;;;;-1.62;88.13;100636.81;5048461;28;20058;-43
2022/12/15 03:54:49;;;;;;;8.98;4.55;;;;;;;-1.61;87.91;100641.13;5045728;28;20047;-47
2022/12/15 03:57:16;;;;;;;10.25;3.90;;;;;;;-1.62;88.26;100648.47;5041052;28;20495;-43
2022/12/15 03:59:43;;;;;;;8.40;4.18;;;;;;;-1.63;88.05;100652.28;5044524;28;20045;-44
2022/12/15 04:02:10;;;;;;;12.30;3.72;;;;;;;-1.63;88.23;100651.44;5014754;28;20587;-44
2022/12/15 04:04:37;;;;;;;8.90;4.30;;;;;;;-1.64;88.08;100650.63;5029558;28;20516;-43
2022/12/15 04:07:04;;;;;;;8.27;4.63;;;;;;;-1.64;88.12;100645.19;5047604;28;20426;-43
2022/12/15 04:09:31;;;;;;;9.32;3.58;;;;;;;-1.66;88.16;100631.09;5045275;28;20040;-43
2022/12/15 04:11:57;;;;;;;6.93;3.25;;;;;;;-1.66;88.46;100641.94;5029532;28;20055;-43
2022/12/15 04:14:24;;;;;;;7.78;3.33;;;;;;;-1.66;87.95;100638.41;5041473;28;20049;-51
2022/12/15 04:16:50;;;;;;;12.23;3.80;;;;;;;-1.65;88.25;100645.47;5043778;28;20040;-43
2022/12/15 04:22:03;;;;;;;10.13;4.32;;;;;;;-1.66;88.48;100641.13;5030866;28;20056;-44
2022/12/15 05:33:40;;;;;;;7.70;2.70;;;;;;;-1.83;88.93;100633.22;5045259;28;20048;-46
2022/12/15 05:36:07;;;;;;;8.50;3.50;;;;;;;-1.81;88.72;100632.94;5042935;28;20041;-44
2022/12/15 05:38:34;;;;;;;10.80;3.83;;;;;;;-1.80;89.02;100634.59;5046023;28;20053;-46
2022/12/15 05:41:01;;;;;;;9.10;3.70;;;;;;;-1.79;88.88;100641.63;5043887;28;20059;-45
2022/12/15 05:43:27;;;;;;;7.50;2.92;;;;;;;-1.81;89.09;100644.63;5045774;28;20052;-47
2022/12/15 05:45:55;;;;;;;11.00;3.58;;;;;;;-1.81;89.25;100639.19;5037809;28;20148;-44
2022/12/15 05:48:21;;;;;;;5.63;2.15;;;;;;;-1.80;89.17;100638.09;5044176;28;20041;-44
2022/12/15 05:50:49;;;;;;;5.18;2.72;;;;;;;-1.80;89.19;100634.59;5045048;28;20383;-43
2022/12/15 05:53:16;;;;;;;6.60;3.28;;;;;;;-1.78;89.29;100625.09;5034701;28;20041;-43
2022/12/15 05:55:42;;;;;;;4.03;2.03;;;;;;;-1.76;89.26;100636.50;5044012;28;20041;-44
2022/12/15 05:58:09;;;;;;;9.48;4.03;;;;;;;-1.74;89.31;100628.88;5043892;28;20037;-45
2022/12/15 06:00:36;;;;;;;12.73;2.78;;;;;;;-1.69;89.10;100630.78;5041100;28;20127;-44
2022/12/15 06:03:03;;;;;;;8.25;2.80;;;;;;;-1.68;89.33;100640.59;5029947;28;20056;-43
2022/12/15 06:05:30;;;;;;;7.05;2.55;;;;;;;-1.66;89.36;100641.13;5023303;28;20029;-46
2022/12/15 06:07:59;;;;;;;5.88;2.40;;;;;;;-1.65;89.34;100648.19;5015434;28;20423;-46
2022/12/15 06:10:26;;;;;;;7.80;2.83;;;;;;;-1.65;89.26;100650.91;5019117;28;20049;-44
2022/12/15 06:12:53;;;;;;;5.57;2.25;;;;;;;-1.68;89.18;100654.16;5018561;28;20037;-43
2022/12/15 06:15:20;;;;;;;9.35;2.78;;;;;;;-1.66;89.38;100651.97;5021147;28;20057;-43
2022/12/15 06:17:47;;;;;;;7.90;2.38;;;;;;;-1.65;89.60;100656.34;5026466;28;20466;-45
2022/12/15 06:20:15;;;;;;;5.95;2.50;;;;;;;-1.64;89.44;100649.84;5023094;28;20045;-43
2022/12/15 06:22:42;;;;;;;8.30;2.58;;;;;;;-1.64;89.46;100645.19;5026498;28;20045;-44
2022/12/15 06:25:16;;;;;;;4.65;2.63;;;;;;;-1.65;89.38;100642.75;5023725;28;20053;-44
2022/12/15 06:27:44;;;;;;;7.93;2.90;;;;;;;-1.67;89.39;100650.38;5030769;28;20064;-43
2022/12/15 06:30:11;;;;;;;5.15;2.53;;;;;;;-1.69;89.48;100652.50;5030241;28;20075;-44
2022/12/15 06:32:38;;;;;;;8.18;2.72;;;;;;;-1.70;89.59;100654.44;5024886;28;20058;-43
2022/12/15 06:35:05;;;;;;;8.82;3.63;;;;;;;-1.73;89.67;100646.00;5022230;28;20525;-44
2022/12/15 06:37:32;;;;;;;11.63;2.95;;;;;;;-1.74;89.53;100652.50;5015878;28;20053;-47
2022/12/15 06:39:59;;;;;;;9.68;3.00;;;;;;;-1.74;89.65;100649.78;4990735;28;20420;-43
2022/12/15 06:42:26;;;;;;;6.93;2.35;;;;;;;-1.75;89.58;100659.03;5026196;28;20045;-47
2022/12/15 06:44:52;;;;;;;8.30;3.47;;;;;;;-1.75;89.56;100656.31;5020031;28;20069;-44
2022/12/15 06:47:19;;;;;;;4.18;2.13;;;;;;;-1.76;89.71;100651.94;5016432;28;20033;-45
2022/12/15 06:49:46;;;;;;;4.93;2.50;;;;;;;-1.76;89.76;100657.38;5024681;28;20076;-44
2022/12/15 06:52:12;;;;;;;5.03;2.63;;;;;;;-1.78;89.72;100654.94;5017064;28;20057;-49
2022/12/15 06:54:39;;;;;;;3.72;2.42;;;;;;;-1.78;89.81;100659.56;5021728;28;20063;-44
2022/12/15 06:57:06;;;;;;;9.25;3.97;;;;;;;-1.78;89.84;100662.25;5027970;28;20049;-45
2022/12/15 06:59:33;;;;;;;5.53;2.80;;;;;;;-1.78;89.69;100654.94;5018358;28;20121;-45
2022/12/15 07:01:59;;;;;;;5.68;2.08;;;;;;;-1.78;89.92;100656.84;5037429;28;20060;-43
2022/12/15 07:04:26;;;;;;;7.10;2.22;;;;;;;-1.77;89.92;100663.91;5048118;28;20052;-44
2022/12/15 07:06:53;;;;;;;5.72;2.83;;;;;;;-1.80;89.96;100661.72;5040039;28;20045;-47
2022/12/15 07:09:20;;;;;;;9.95;2.58;;;;;;;-1.81;89.96;100666.31;5046474;28;20037;-48
2022/12/15 07:11:49;;;;;;;11.07;3.53;;;;;;;-1.83;89.76;100677.44;5048278;28;20406;-45
2022/12/15 07:14:15;;;;;;;7.38;2.58;;;;;;;-1.84;89.94;100672.28;5048721;28;20044;-43
2022/12/15 07:16:42;;;;;;;7.40;3.30;;;;;;;-1.86;89.95;100664.41;5047380;28;20051;-43
2022/12/15 07:19:11;;;;;;;11.90;3.25;;;;;;;-1.88;90.02;100660.34;5048719;28;20144;-43
2022/12/15 07:21:38;;;;;;;7.07;2.90;;;;;;;-1.89;90.19;100667.66;5047868;28;20037;-50
2022/12/15 07:24:05;;;;;;;5.70;2.10;;;;;;;-1.87;90.12;100673.63;5045298;28;20061;-44
2022/12/15 07:26:32;;;;;;;6.03;2.63;;;;;;;-1.87;89.96;100657.34;5043372;28;20132;-44
2022/12/15 07:28:59;;;;;;;9.30;2.70;;;;;;;-1.88;90.02;100654.91;5048095;28;20278;-44
2022/12/15 07:31:26;;;;;;;5.30;3.03;;;;;;;-1.87;90.29;100667.38;5048141;28;20056;-44
2022/12/15 07:33:53;;;;;;;7.47;3.40;;;;;;;-1.86;90.13;100667.13;5045754;28;20029;-46
2022/12/15 07:36:20;;;;;;;5.25;2.55;;;;;;;-1.86;90.22;100669.03;5047805;28;20036;-43
2022/12/15 07:38:47;;;;;;;10.32;3.20;;;;;;;-1.87;90.23;100673.63;5047789;28;20090;-43
2022/12/15 07:41:18;;;;;;;8.43;3.15;;;;;;;-1.87;90.31;100670.91;5021373;28;20049;-44
2022/12/15 07:43:46;;;;;;;6.78;2.50;;;;;;;-1.87;90.34;100676.34;5053960;28;20040;-44
2022/12/15 07:46:13;;;;;;;5.18;2.20;;;;;;;-1.88;90.35;100666.56;5048562;28;20399;-44
2022/12/15 07:48:40;;;;;;;8.13;3.28;;;;;;;-1.87;90.38;100672.81;5048871;28;20036;-43
2022/12/15 07:51:07;;;;;;;5.63;2.22;;;;;;;-1.86;90.21;100686.13;5048284;28;20064;-50
2022/12/15 07:53:45;;;;;;;11.52;4.88;;;;;;;-1.86;90.41;100686.13;5048338;28;20314;-43
2022/12/15 07:56:12;;;;;;;7.50;2.70;;;;;;;-1.83;90.51;100694.81;5047582;28;20049;-43
2022/12/15 07:58:38;;;;;;;6.43;2.83;;;;;;;-1.81;90.54;100692.63;5048845;28;20055;-43
2022/12/15 08:01:08;;;;;;;4.88;2.83;;;;;;;-1.82;90.37;100691.81;5029500;28;20041;-43
2022/12/15 08:03:36;;;;;;;4.78;2.33;;;;;;;-1.80;90.39;100694.28;5020488;28;20052;-44
2022/12/15 08:06:11;;;;;;;12.23;3.30;;;;;;;-1.83;90.31;100689.38;5048403;28;20056;-44
2022/12/15 08:08:39;;;;;;;9.07;2.75;;;;;;;-1.86;90.44;100710.53;5048770;28;20142;-44
2022/12/15 08:11:12;;;;;;;7.18;2.88;;;;;;;-1.85;90.56;100704.00;5047595;28;20091;-43
2022/12/15 08:13:40;;;;;;;7.70;2.90;;;;;;;-1.83;90.55;100717.34;5040097;28;20163;-50
2022/12/15 08:16:28;;;;;;;12.27;3.33;;;;;;;-1.83;90.64;100716.50;5042866;28;20445;-44
2022/12/15 08:18:56;;;;;;;4.65;3.15;;;;;;;-1.86;90.58;100715.97;5046278;28;20286;-44
2022/12/15 08:21:23;;;;;;;11.23;3.20;;;;;;;-1.85;90.78;100730.31;5047898;28;20095;-44
2022/12/15 08:23:49;;;;;;;6.47;3.10;;;;;;;-1.85;90.74;100719.47;5048148;28;20041;-42
2022/12/15 08:26:17;;;;;;;7.97;3.70;;;;;;;-1.86;90.89;100724.09;5045359;28;20060;-48
2022/12/15 08:28:44;;;;;;;9.35;3.35;;;;;;;-1.85;90.70;100733.03;5028896;28;20661;-47
2022/12/15 08:31:16;;;;;;;10.90;3.80;;;;;;;-1.86;90.50;100737.69;5043869;28;20075;-48
2022/12/15 08:33:44;;;;;;;16.08;3.50;;;;;;;-1.88;90.66;100737.09;5047080;28;20487;-43
2022/12/15 08:36:13;;;;;;;8.27;3.28;;;;;;;-1.90;90.60;100733.84;5046497;28;20614;-43
2022/12/15 08:38:41;;;;;;;4.20;2.95;;;;;;;-1.87;90.83;100737.91;5045826;28;20048;-44
2022/12/15 08:41:14;;;;;;;6.28;2.53;;;;;;;-1.85;90.85;100731.16;5046980;28;20049;-43
2022/12/15 08:43:41;;;;;;;6.32;2.97;;;;;;;-1.81;90.80;100741.47;5049746;28;20052;-43
2022/12/15 08:46:20;;;;;;;6.07;3.17;;;;;;;-1.81;90.78;100741.47;5041189;28;20293;-42
2022/12/15 08:48:48;;;;;;;7.20;2.78;;;;;;;-1.81;90.91;100752.34;5034965;28;20041;-44
2022/12/15 08:51:16;;;;;;;7.10;3.10;;;;;;;-1.81;90.67;100742.31;5033772;28;20180;-43
2022/12/15 08:53:42;;;;;;;8.48;4.07;;;;;;;-1.84;90.69;100737.41;5047796;28;20710;-44
2022/12/15 08:56:12;;;;;;;11.20;4.55;;;;;;;-1.83;90.82;100749.06;5047268;28;20745;-44
2022/12/15 08:58:39;;;;;;;16.17;5.82;;;;;;;-1.86;91.21;100734.13;5047611;28;20056;-42
2022/12/15 09:01:11;;;;;;;8.98;5.53;;;;;;;-1.88;90.79;100726.25;5028476;28;20057;-44
2022/12/15 09:03:45;;;;;;;17.63;5.38;;;;;;;-1.91;90.88;100744.97;5038168;28;20052;-47
2022/12/15 09:06:14;;;;;;;12.27;6.10;;;;;;;-1.96;90.68;100745.72;5044871;28;20469;-43
2022/12/15 09:08:41;;;;;;;12.13;6.07;;;;;;;-1.96;90.90;100747.66;5048096;28;20052;-43
2022/12/15 09:11:08;;;;;;;15.48;5.65;;;;;;;-1.97;90.96;100743.28;5047664;28;20045;-43
2022/12/15 09:13:35;;;;;;;13.82;6.38;;;;;;;-1.98;91.02;100742.47;5046446;28;20060;-43
2022/12/15 09:16:05;;;;;;;23.63;9.30;;;;;;;-1.97;90.99;100765.81;5047395;28;20055;-44
2022/12/15 09:18:36;;;;;;;28.38;9.05;;;;;;;-1.97;90.94;100759.56;5047427;28;20037;-43
2022/12/15 09:21:05;;;;;;;13.48;6.13;;;;;;;-2.00;90.87;100785.31;5043881;28;20053;-43
2022/12/15 09:23:33;;;;;;;14.35;6.05;;;;;;;-1.99;91.03;100781.56;5033216;28;20502;-48
2022/12/15 09:26:07;;;;;;;12.50;5.88;;;;;;;-1.96;91.02;100785.63;5046972;28;20044;-44
2022/12/15 09:28:34;;;;;;;9.13;3.13;;;;;;;-1.91;91.10;100794.59;5044803;28;20486;-43
2022/12/15 09:31:13;;;;;;;9.43;4.10;;;;;;;-1.83;90.99;100784.34;5046321;28;20048;-43
2022/12/15 09:33:41;;;;;;;7.25;3.40;;;;;;;-1.77;91.22;100791.44;5045019;28;20498;-43
2022/12/15 09:36:12;;;;;;;11.82;3.67;;;;;;;-1.74;91.15;100782.75;5045672;28;20055;-45
2022/12/15 09:38:40;;;;;;;9.00;2.90;;;;;;;-1.67;91.25;100780.63;5043312;28;20571;-43
2022/12/15 09:41:16;;;;;;;10.88;2.38;;;;;;;-1.61;90.96;100785.00;5047091;28;20052;-49
2022/12/15 09:43:48;;;;;;;5.90;2.20;;;;;;;-1.55;91.27;100800.22;5021639;28;20068;-43
2022/12/15 09:46:33;;;;;;;8.00;3.58;;;;;;;-1.51;91.26;100801.34;5037859;28;20502;-43
2022/12/15 09:49:09;;;;;;;6.05;3.00;;;;;;;-1.46;91.05;100801.38;5028731;28;20045;-43
2022/12/15 09:51:54;;;;;;;11.98;2.80;;;;;;;-1.42;91.06;100810.59;5046660;28;20061;-43
2022/12/15 09:54:25;;;;;;;11.23;3.47;;;;;;;-1.38;90.99;100809.00;5046560;28;20040;-44
2022/12/15 09:56:55;;;;;;;20.50;4.65;;;;;;;-1.34;91.10;100812.81;5039088;28;20330;-43
2022/12/15 09:59:49;;;;;;;8.68;3.65;;;;;;;-1.29;91.03;100812.84;5047727;28;20040;-50
2022/12/15 10:02:41;;;;;;;10.05;4.75;;;;;;;-1.24;91.27;100815.56;5060437;28;20140;-43
2022/12/15 10:05:29;;;;;;;22.48;6.72;;;;;;;-1.20;91.18;100813.97;5028992;28;20048;-43
2022/12/15 10:08:16;;;;;;;11.77;3.75;;;;;;;-1.15;91.01;100814.00;5070412;28;20094;-43
2022/12/15 10:10:56;;;;;;;7.32;3.85;;;;;;;-1.11;91.23;100811.56;5070860;28;20117;-43
2022/12/15 10:13:48;;;;;;;7.18;3.60;;;;;;;-1.07;91.09;100816.19;5023696;28;20419;-44
2022/12/15 10:16:21;;;;;;;10.07;2.83;;;;;;;-1.02;91.18;100816.22;5065025;28;20114;-44
2022/12/15 10:19:15;;;;;;;6.80;2.95;;;;;;;-0.99;91.25;100817.56;5070369;28;20060;-47
2022/12/15 10:21:42;;;;;;;8.50;2.88;;;;;;;-0.95;91.38;100818.66;5069233;28;20044;-44
2022/12/15 10:24:15;;;;;;;9.63;2.30;;;;;;;-0.91;91.39;100823.31;5070120;28;20041;-44
2022/12/15 10:27:12;;;;;;;12.57;4.43;;;;;;;-0.86;91.18;100825.22;5070229;28;20121;-43
2022/12/15 10:29:44;;;;;;;6.93;2.55;;;;;;;-0.84;91.44;100832.00;5032551;28;20059;-43
2022/12/15 10:32:18;;;;;;;9.05;2.60;;;;;;;-0.80;91.16;100830.41;5064037;28;20044;-43
2022/12/15 10:34:45;;;;;;;10.25;2.60;;;;;;;-0.77;91.33;100826.34;5058815;28;20048;-43
2022/12/15 10:37:17;;;;;;;7.88;3.38;;;;;;;-0.76;91.36;100828.78;5050286;28;20107;-43
2022/12/15 10:39:49;;;;;;;8.30;2.80;;;;;;;-0.72;91.21;100838.03;5048857;28;20468;-51
2022/12/15 10:42:20;;;;;;;6.00;3.00;;;;;;;-0.70;91.29;100833.16;5050345;28;20056;-43
2022/12/15 10:44:52;;;;;;;4.97;2.72;;;;;;;-0.67;91.35;100835.34;5065153;28;20052;-48
2022/12/15 10:47:20;;;;;;;8.32;2.35;;;;;;;-0.64;91.35;100828.53;5047738;28;20053;-43
2022/12/15 10:49:47;;;;;;;12.23;2.58;;;;;;;-0.62;91.44;100831.81;5059980;28;20051;-43
2022/12/15 10:52:24;;;;;;;13.43;3.40;;;;;;;-0.58;91.25;100830.16;5063500;28;20051;-43
2022/12/15 10:54:53;;;;;;;7.43;3.35;;;;;;;-0.56;91.19;100824.47;5069489;28;20041;-44
2022/12/15 10:57:34;;;;;;;13.73;2.67;;;;;;;-0.53;91.52;100821.22;5069578;28;20518;-44
2022/12/15 11:00:12;;;;;;;7.95;4.65;;;;;;;-0.51;91.56;100819.84;5069838;28;20192;-45
2022/12/15 11:02:40;;;;;;;9.77;3.15;;;;;;;-0.49;91.23;100822.28;5066340;28;20087;-43
2022/12/15 11:05:16;;;;;;;12.82;3.95;;;;;;;-0.47;91.59;100812.78;5037610;28;20041;-44
2022/12/15 11:08:07;;;;;;;7.82;3.05;;;;;;;-0.44;91.34;100814.13;5043013;28;20049;-44
2022/12/15 11:13:34;;;;;;;7.43;2.80;;;;;;;-0.35;91.59;100831.56;5049798;28;20295;-43
2022/12/15 11:16:16;;;;;;;6.35;3.28;;;;;;;-0.33;91.33;100823.94;5049176;28;20063;-44
2022/12/15 11:18:54;;;;;;;7.30;3.50;;;;;;;-0.28;91.23;100832.09;5049344;28;20049;-50
2022/12/15 11:21:37;;;;;;;12.55;4.07;;;;;;;-0.25;91.58;100831.56;5037569;28;20053;-45
2022/12/15 11:24:42;;;;;;;8.73;2.90;;;;;;;-0.22;91.24;100825.59;5051006;28;20377;-50
2022/12/15 11:27:46;;;;;;;11.88;2.22;;;;;;;-0.18;91.38;100826.66;5042250;28;20413;-43
2022/12/15 11:30:25;;;;;;;11.88;3.00;;;;;;;-0.15;91.25;100826.13;5045973;28;20556;-46
2022/12/15 11:32:56;;;;;;;12.13;2.53;;;;;;;-0.13;91.59;100829.38;5047482;28;20434;-43
2022/12/15 11:35:45;;;;;;;11.75;3.15;;;;;;;-0.09;91.42;100819.59;5042466;28;20045;-44
2022/12/15 11:38:33;;;;;;;9.98;3.90;;;;;;;-0.05;91.54;100820.66;5022736;28;20053;-47
2022/12/15 11:41:15;;;;;;;15.45;5.60;;;;;;;-0.02;91.67;100822.84;5052039;28;20044;-44
2022/12/15 11:44:01;;;;;;;14.65;7.57;;;;;;;0.02;91.43;100828.56;5059233;28;20041;-43
2022/12/15 11:46:41;;;;;;;13.85;6.38;;;;;;;0.05;91.32;100814.41;5042805;28;20502;-45
2022/12/15 11:49:27;;;;;;;11.07;5.05;;;;;;;0.09;91.32;100821.75;5046248;28;20052;-45
2022/12/15 11:52:18;;;;;;;10.07;4.78;;;;;;;0.12;91.66;100821.22;5058669;28;20063;-44
2022/12/15 11:55:11;;;;;;;15.82;4.68;;;;;;;0.17;91.29;100823.09;5064609;28;20490;-44
2022/12/15 11:58:05;;;;;;;12.00;3.50;;;;;;;0.20;91.38;100823.38;5068926;28;20052;-44
2022/12/15 12:00:42;;;;;;;13.20;2.75;;;;;;;0.24;91.72;100819.00;5069074;28;20441;-49
2022/12/15 12:03:24;;;;;;;7.43;3.58;;;;;;;0.28;91.77;100813.81;5067806;28;20076;-44
2022/12/15 12:06:00;;;;;;;7.35;2.97;;;;;;;0.32;91.81;100809.47;5069036;28;20045;-43
2022/12/15 12:08:52;;;;;;;5.10;2.58;;;;;;;0.35;91.44;100812.44;5069078;28;20052;-50
2022/12/15 12:11:28;;;;;;;9.60;3.95;;;;;;;0.39;91.34;100799.91;5038742;28;20053;-44
2022/12/15 12:14:14;;;;;;;14.23;4.32;;;;;;;0.42;91.65;100804.81;5066962;28;20072;-44
2022/12/15 12:17:01;;;;;;;6.00;2.60;;;;;;;0.47;91.47;100806.72;5066811;28;20052;-44
2022/12/15 12:19:49;;;;;;;8.68;2.70;;;;;;;0.51;91.42;100811.31;5062735;28;20041;-44
2022/12/15 12:22:39;;;;;;;5.63;3.28;;;;;;;0.52;91.61;100801.25;5066502;28;20064;-43
2022/12/15 12:25:20;;;;;;;8.20;3.03;;;;;;;0.56;91.54;100799.56;5067921;28;20374;-43
2022/12/15 12:28:04;;;;;;;12.18;3.58;;;;;;;0.60;91.73;100801.50;5053192;28;20045;-44
2022/12/15 12:30:45;;;;;;;8.07;2.72;;;;;;;0.67;91.95;100811.25;5048107;28;20045;-44
2022/12/15 12:33:42;;;;;;;7.18;3.47;;;;;;;0.74;92.04;100806.34;5062178;28;20490;-44
2022/12/15 12:36:13;;;;;;;;;;;;;;;0.75;91.55;100806.06;5068483;28;20041;-44
2022/12/15 12:38:52;;;;;;;10.38;3.67;;;;;;;0.75;91.60;100807.94;5049569;28;19928;-44
2022/12/15 12:41:32;;;;;;;9.57;4.28;;;;;;;0.80;91.55;100805.22;5048270;28;20056;-44
2022/12/15 12:44:06;;;;;;;7.30;3.55;;;;;;;0.83;91.54;100804.66;5036163;28;20049;-44
2022/12/15 12:46:39;;;;;;;6.45;3.53;;;;;;;0.85;91.92;100807.94;5041569;28;20043;-44
2022/12/15 12:49:18;;;;;;;9.35;3.03;;;;;;;0.87;91.71;100805.75;5065182;28;20481;-44
2022/12/15 12:51:54;;;;;;;10.57;3.38;;;;;;;0.89;92.10;100809.00;5058015;28;20047;-44
2022/12/15 12:54:33;;;;;;;9.20;2.63;;;;;;;0.95;91.79;100802.44;5063301;28;20060;-45
2022/12/15 12:57:21;;;;;;;8.73;2.88;;;;;;;0.99;92.09;100803.50;5059529;28;20465;-45
2022/12/15 12:59:57;;;;;;;12.57;3.65;;;;;;;1.04;92.03;100811.63;5067666;28;20040;-44
2022/12/15 13:02:24;;;;;;;9.85;3.85;;;;;;;1.06;91.79;100810.25;5054867;28;20057;-44
2022/12/15 13:05:03;;;;;;;6.22;2.70;;;;;;;1.09;92.16;100808.88;5035509;28;20043;-44
2022/12/15 13:07:35;;;;;;;5.55;3.15;;;;;;;1.11;92.00;100812.16;5067062;28;20041;-44
2022/12/15 13:10:07;;;;;;;6.75;2.33;;;;;;;1.15;92.34;100813.22;5041775;28;20129;-44
2022/12/15 13:12:44;;;;;;;10.95;4.22;;;;;;;1.17;92.13;100800.94;5052234;28;20064;-44
2022/12/15 13:15:29;;;;;;;10.85;3.72;;;;;;;1.23;92.13;100808.00;5037601;28;20044;-43
2022/12/15 13:18:01;;;;;;;12.73;3.50;;;;;;;1.28;92.27;100806.31;5042456;28;20491;-43
2022/12/15 13:20:31;;;;;;;11.35;3.20;;;;;;;1.32;92.09;100813.69;5034838;28;20098;-47
2022/12/15 13:23:22;;;;;;;9.98;2.58;;;;;;;1.39;92.19;100813.34;5043838;28;20466;-42
2022/12/15 13:25:52;;;;;;;8.27;2.38;;;;;;;1.42;92.27;100819.06;5040615;28;20076;-43
2022/12/15 13:28:26;;;;;;;7.60;3.80;;;;;;;1.47;92.23;100816.28;5039891;28;20048;-43
2022/12/15 13:31:20;;;;;;;9.47;3.17;;;;;;;1.53;92.28;100825.25;5046064;28;20048;-43
2022/12/15 13:33:54;;;;;;;14.45;2.78;;;;;;;1.58;92.27;100819.78;5033415;28;20065;-43
2022/12/15 13:36:36;;;;;;;5.72;2.20;;;;;;;1.63;92.14;100823.28;5055048;28;20111;-43
2022/12/15 13:39:04;;;;;;;14.50;2.40;;;;;;;1.69;92.09;100813.97;5038531;28;20080;-43
2022/12/15 13:41:32;;;;;;;6.63;2.50;;;;;;;1.73;92.25;100809.56;5066514;28;20052;-48
2022/12/15 13:43:59;;;;;;;9.75;2.67;;;;;;;1.77;92.50;100810.59;5053499;28;20051;-43
2022/12/15 13:46:31;;;;;;;11.07;3.70;;;;;;;1.81;92.53;100811.66;5033361;28;20566;-42
2022/12/15 13:49:09;;;;;;;9.02;3.00;;;;;;;1.87;92.67;100803.44;5037211;28;20085;-42
2022/12/15 13:51:44;;;;;;;7.78;2.33;;;;;;;1.91;92.89;100804.50;5051312;28;20049;-43
2022/12/15 13:54:24;;;;;;;10.43;4.43;;;;;;;1.94;92.29;100806.63;5042396;28;20044;-43
2022/12/15 13:57:02;;;;;;;11.60;2.60;;;;;;;1.97;92.30;100819.72;5065112;28;20446;-44
2022/12/15 13:59:32;;;;;;;12.60;4.75;;;;;;;1.98;92.55;100816.72;5066339;28;20037;-41
2022/12/15 14:01:59;;;;;;;7.95;5.10;;;;;;;1.99;92.49;100818.34;5066541;28;20059;-43
2022/12/15 14:04:26;;;;;;;15.30;4.25;;;;;;;2.03;92.60;100818.59;5065094;28;20110;-45
2022/12/15 14:07:00;;;;;;;13.52;4.30;;;;;;;2.06;92.77;100807.09;5066333;28;20484;-43
2022/12/15 14:09:31;;;;;;;16.05;6.85;;;;;;;2.10;92.34;100816.31;5053686;28;20178;-41
2022/12/15 14:12:02;;;;;;;9.65;4.10;;;;;;;2.09;92.75;100807.31;5039472;28;20048;-43
2022/12/15 14:14:32;;;;;;;9.80;3.38;;;;;;;2.10;92.60;100816.31;5066466;28;20119;-43
2022/12/15 14:17:02;;;;;;;9.68;4.20;;;;;;;2.08;92.29;100816.63;5042404;28;20504;-42
2022/12/15 14:19:49;;;;;;;11.90;4.07;;;;;;;2.02;92.45;100812.31;5039317;28;20091;-43